sensor_id;sensor_type;location;lat;lon;timestamp;temperature;humidity
21682;DHT22;11002;48.256;10.084;2023-04-03T00:00:54;3.30;90.50
21682;DHT22;11002;48.256;10.084;2023-04-03T00:03:22;3.20;88.20
21682;DHT22;11002;48.256;10.084;2023-04-03T00:05:51;3.20;85.90
21682;DHT22;11002;48.256;10.084;2023-04-03T00:08:19;3.20;87.30
21682;DHT22;11002;48.256;10.084;2023-04-03T00:10:46;3.40;83.90
21682;DHT22;11002;48.256;10.084;2023-04-03T00:13:14;3.20;79.60
21682;DHT22;11002;48.256;10.084;2023-04-03T00:15:42;3.40;79.10
21682;DHT22;11002;48.256;10.084;2023-04-03T00:18:09;3.20;79.60
21682;DHT22;11002;48.256;10.084;2023-04-03T00:20:36;3.30;79.70
21682;DHT22;11002;48.256;10.084;2023-04-03T00:23:05;3.10;79.00
21682;DHT22;11002;48.256;10.084;2023-04-03T00:25:33;3.20;78.50
21682;DHT22;11002;48.256;10.084;2023-04-03T00:28:00;3.20;77.70
21682;DHT22;11002;48.256;10.084;2023-04-03T00:30:28;3.20;76.30
21682;DHT22;11002;48.256;10.084;2023-04-03T00:32:55;3.00;75.00
21682;DHT22;11002;48.256;10.084;2023-04-03T00:35:23;2.90;77.10
21682;DHT22;11002;48.256;10.084;2023-04-03T00:37:53;2.90;76.60
21682;DHT22;11002;48.256;10.084;2023-04-03T00:40:23;3.10;74.90
21682;DHT22;11002;48.256;10.084;2023-04-03T00:42:55;2.90;72.80
21682;DHT22;11002;48.256;10.084;2023-04-03T00:45:26;2.90;67.60
21682;DHT22;11002;48.256;10.084;2023-04-03T00:47:55;2.90;67.70
21682;DHT22;11002;48.256;10.084;2023-04-03T00:50:26;3.00;65.20
21682;DHT22;11002;48.256;10.084;2023-04-03T00:52:54;2.80;66.10
21682;DHT22;11002;48.256;10.084;2023-04-03T00:55:23;2.70;66.70
21682;DHT22;11002;48.256;10.084;2023-04-03T00:57:51;3.00;66.90
21682;DHT22;11002;48.256;10.084;2023-04-03T01:00:20;3.30;66.60
21682;DHT22;11002;48.256;10.084;2023-04-03T01:02:48;3.00;64.40
21682;DHT22;11002;48.256;10.084;2023-04-03T01:05:16;3.00;65.30
21682;DHT22;11002;48.256;10.084;2023-04-03T01:07:45;3.10;66.40
21682;DHT22;11002;48.256;10.084;2023-04-03T01:10:15;3.00;63.50
21682;DHT22;11002;48.256;10.084;2023-04-03T01:12:48;2.90;62.70
21682;DHT22;11002;48.256;10.084;2023-04-03T01:15:18;2.90;62.50
21682;DHT22;11002;48.256;10.084;2023-04-03T01:17:47;2.90;59.60
21682;DHT22;11002;48.256;10.084;2023-04-03T01:20:43;3.00;58.20
21682;DHT22;11002;48.256;10.084;2023-04-03T01:23:22;2.80;57.90
21682;DHT22;11002;48.256;10.084;2023-04-03T01:25:52;3.00;55.50
21682;DHT22;11002;48.256;10.084;2023-04-03T01:28:23;2.80;56.70
21682;DHT22;11002;48.256;10.084;2023-04-03T01:30:56;3.00;57.50
21682;DHT22;11002;48.256;10.084;2023-04-03T01:33:27;2.90;56.70
21682;DHT22;11002;48.256;10.084;2023-04-03T01:35:55;2.80;57.70
21682;DHT22;11002;48.256;10.084;2023-04-03T01:38:23;2.90;53.50
21682;DHT22;11002;48.256;10.084;2023-04-03T01:40:50;3.20;56.00
21682;DHT22;11002;48.256;10.084;2023-04-03T01:43:18;3.00;57.40
21682;DHT22;11002;48.256;10.084;2023-04-03T01:45:45;3.10;58.10
21682;DHT22;11002;48.256;10.084;2023-04-03T01:48:16;3.10;57.10
21682;DHT22;11002;48.256;10.084;2023-04-03T01:50:45;3.30;57.60
21682;DHT22;11002;48.256;10.084;2023-04-03T01:53:13;3.10;55.30
21682;DHT22;11002;48.256;10.084;2023-04-03T01:55:40;3.40;56.40
21682;DHT22;11002;48.256;10.084;2023-04-03T01:58:07;3.30;57.70
21682;DHT22;11002;48.256;10.084;2023-04-03T02:00:35;3.20;57.20
21682;DHT22;11002;48.256;10.084;2023-04-03T02:03:03;3.40;58.20
21682;DHT22;11002;48.256;10.084;2023-04-03T02:05:30;3.30;56.00
21682;DHT22;11002;48.256;10.084;2023-04-03T02:07:59;3.20;55.40
21682;DHT22;11002;48.256;10.084;2023-04-03T02:10:27;3.30;56.50
21682;DHT22;11002;48.256;10.084;2023-04-03T02:12:54;3.20;56.20
21682;DHT22;11002;48.256;10.084;2023-04-03T02:15:22;3.20;55.50
21682;DHT22;11002;48.256;10.084;2023-04-03T02:17:49;3.30;55.60
21682;DHT22;11002;48.256;10.084;2023-04-03T02:20:16;3.20;55.20
21682;DHT22;11002;48.256;10.084;2023-04-03T02:22:45;3.20;53.80
21682;DHT22;11002;48.256;10.084;2023-04-03T02:25:14;3.20;53.80
21682;DHT22;11002;48.256;10.084;2023-04-03T02:27:41;3.00;52.80
21682;DHT22;11002;48.256;10.084;2023-04-03T02:30:09;3.00;53.60
21682;DHT22;11002;48.256;10.084;2023-04-03T02:32:36;3.10;53.80
21682;DHT22;11002;48.256;10.084;2023-04-03T02:35:04;3.00;53.60
21682;DHT22;11002;48.256;10.084;2023-04-03T02:37:32;3.20;52.30
21682;DHT22;11002;48.256;10.084;2023-04-03T02:40:00;2.90;52.90
21682;DHT22;11002;48.256;10.084;2023-04-03T02:42:29;3.00;53.60
21682;DHT22;11002;48.256;10.084;2023-04-03T02:44:57;3.00;51.70
21682;DHT22;11002;48.256;10.084;2023-04-03T02:47:26;2.90;52.00
21682;DHT22;11002;48.256;10.084;2023-04-03T02:49:54;2.80;51.10
21682;DHT22;11002;48.256;10.084;2023-04-03T02:52:21;3.00;53.60
21682;DHT22;11002;48.256;10.084;2023-04-03T02:54:50;2.90;51.80
21682;DHT22;11002;48.256;10.084;2023-04-03T02:57:17;3.10;53.70
21682;DHT22;11002;48.256;10.084;2023-04-03T02:59:47;2.90;53.60
21682;DHT22;11002;48.256;10.084;2023-04-03T03:02:14;3.10;53.80
21682;DHT22;11002;48.256;10.084;2023-04-03T03:04:41;3.00;53.60
21682;DHT22;11002;48.256;10.084;2023-04-03T03:07:09;3.10;53.80
21682;DHT22;11002;48.256;10.084;2023-04-03T03:09:37;3.20;52.50
21682;DHT22;11002;48.256;10.084;2023-04-03T03:12:04;3.00;53.30
21682;DHT22;11002;48.256;10.084;2023-04-03T03:14:32;3.00;53.70
21682;DHT22;11002;48.256;10.084;2023-04-03T03:17:01;3.20;53.80
21682;DHT22;11002;48.256;10.084;2023-04-03T03:19:28;3.00;53.60
21682;DHT22;11002;48.256;10.084;2023-04-03T03:21:56;3.10;53.70
21682;DHT22;11002;48.256;10.084;2023-04-03T03:24:24;3.00;52.50
21682;DHT22;11002;48.256;10.084;2023-04-03T03:26:51;3.00;52.70
21682;DHT22;11002;48.256;10.084;2023-04-03T03:29:19;2.90;53.50
21682;DHT22;11002;48.256;10.084;2023-04-03T03:31:46;3.00;53.60
21682;DHT22;11002;48.256;10.084;2023-04-03T03:34:15;3.00;53.70
21682;DHT22;11002;48.256;10.084;2023-04-03T03:36:43;3.00;53.60
21682;DHT22;11002;48.256;10.084;2023-04-03T03:39:11;3.10;53.80
21682;DHT22;11002;48.256;10.084;2023-04-03T03:41:38;3.00;53.70
21682;DHT22;11002;48.256;10.084;2023-04-03T03:44:06;3.10;53.70
21682;DHT22;11002;48.256;10.084;2023-04-03T03:46:33;3.20;53.80
21682;DHT22;11002;48.256;10.084;2023-04-03T03:49:01;3.10;53.80
21682;DHT22;11002;48.256;10.084;2023-04-03T03:51:30;3.10;53.70
21682;DHT22;11002;48.256;10.084;2023-04-03T03:53:57;3.10;53.70
21682;DHT22;11002;48.256;10.084;2023-04-03T03:56:25;3.10;53.80
21682;DHT22;11002;48.256;10.084;2023-04-03T03:58:53;3.10;54.60
21682;DHT22;11002;48.256;10.084;2023-04-03T04:01:22;3.30;53.90
21682;DHT22;11002;48.256;10.084;2023-04-03T04:03:51;3.10;53.70
21682;DHT22;11002;48.256;10.084;2023-04-03T04:06:23;3.10;54.70
21682;DHT22;11002;48.256;10.084;2023-04-03T04:08:55;3.10;53.70
21682;DHT22;11002;48.256;10.084;2023-04-03T04:11:22;3.30;53.90
21682;DHT22;11002;48.256;10.084;2023-04-03T04:13:51;3.40;54.00
21682;DHT22;11002;48.256;10.084;2023-04-03T04:16:21;3.10;53.70
21682;DHT22;11002;48.256;10.084;2023-04-03T04:18:48;3.40;54.00
21682;DHT22;11002;48.256;10.084;2023-04-03T04:21:16;3.00;53.60
21682;DHT22;11002;48.256;10.084;2023-04-03T04:23:45;3.20;53.80
21682;DHT22;11002;48.256;10.084;2023-04-03T04:26:15;3.30;53.90
21682;DHT22;11002;48.256;10.084;2023-04-03T04:28:43;3.00;53.70
21682;DHT22;11002;48.256;10.084;2023-04-03T04:31:10;3.10;53.70
21682;DHT22;11002;48.256;10.084;2023-04-03T04:33:38;3.00;53.60
21682;DHT22;11002;48.256;10.084;2023-04-03T04:36:07;3.20;53.80
21682;DHT22;11002;48.256;10.084;2023-04-03T04:38:35;3.30;51.60
21682;DHT22;11002;48.256;10.084;2023-04-03T04:41:02;3.20;52.20
21682;DHT22;11002;48.256;10.084;2023-04-03T04:43:31;2.80;53.40
21682;DHT22;11002;48.256;10.084;2023-04-03T04:46:03;2.90;53.50
21682;DHT22;11002;48.256;10.084;2023-04-03T04:48:35;3.00;52.50
21682;DHT22;11002;48.256;10.084;2023-04-03T04:51:03;2.90;52.10
21682;DHT22;11002;48.256;10.084;2023-04-03T04:53:30;2.90;52.10
21682;DHT22;11002;48.256;10.084;2023-04-03T04:55:58;3.00;53.60
21682;DHT22;11002;48.256;10.084;2023-04-03T04:58:26;2.90;53.60
21682;DHT22;11002;48.256;10.084;2023-04-03T05:01:00;2.90;52.20
21682;DHT22;11002;48.256;10.084;2023-04-03T05:03:28;3.00;53.10
21682;DHT22;11002;48.256;10.084;2023-04-03T05:05:56;2.90;53.50
21682;DHT22;11002;48.256;10.084;2023-04-03T05:08:23;2.90;52.10
21682;DHT22;11002;48.256;10.084;2023-04-03T05:10:52;2.90;53.60
21682;DHT22;11002;48.256;10.084;2023-04-03T05:13:19;2.80;53.50
21682;DHT22;11002;48.256;10.084;2023-04-03T05:15:47;3.00;53.80
21682;DHT22;11002;48.256;10.084;2023-04-03T05:18:16;2.80;53.50
21682;DHT22;11002;48.256;10.084;2023-04-03T05:20:44;2.90;52.40
21682;DHT22;11002;48.256;10.084;2023-04-03T05:23:11;2.70;53.50
21682;DHT22;11002;48.256;10.084;2023-04-03T05:25:40;2.90;54.10
21682;DHT22;11002;48.256;10.084;2023-04-03T05:28:08;2.80;54.30
21682;DHT22;11002;48.256;10.084;2023-04-03T05:30:36;3.00;53.70
21682;DHT22;11002;48.256;10.084;2023-04-03T05:33:04;3.00;53.60
21682;DHT22;11002;48.256;10.084;2023-04-03T05:35:45;3.00;54.60
21682;DHT22;11002;48.256;10.084;2023-04-03T05:38:17;3.00;53.70
21682;DHT22;11002;48.256;10.084;2023-04-03T05:40:45;2.90;53.50
21682;DHT22;11002;48.256;10.084;2023-04-03T05:43:12;2.90;53.60
21682;DHT22;11002;48.256;10.084;2023-04-03T05:45:42;2.80;54.30
21682;DHT22;11002;48.256;10.084;2023-04-03T05:48:10;2.90;55.00
21682;DHT22;11002;48.256;10.084;2023-04-03T05:50:38;3.00;54.60
21682;DHT22;11002;48.256;10.084;2023-04-03T05:53:17;3.00;53.90
21682;DHT22;11002;48.256;10.084;2023-04-03T05:55:45;3.20;54.70
21682;DHT22;11002;48.256;10.084;2023-04-03T05:58:13;3.00;53.60
21682;DHT22;11002;48.256;10.084;2023-04-03T06:00:42;3.20;53.80
21682;DHT22;11002;48.256;10.084;2023-04-03T06:03:10;3.20;53.80
21682;DHT22;11002;48.256;10.084;2023-04-03T06:05:37;3.10;53.70
21682;DHT22;11002;48.256;10.084;2023-04-03T06:08:05;3.20;53.80
21682;DHT22;11002;48.256;10.084;2023-04-03T06:10:34;3.20;53.90
21682;DHT22;11002;48.256;10.084;2023-04-03T06:13:02;3.10;53.80
21682;DHT22;11002;48.256;10.084;2023-04-03T06:15:29;2.90;53.50
21682;DHT22;11002;48.256;10.084;2023-04-03T06:17:57;3.20;53.90
21682;DHT22;11002;48.256;10.084;2023-04-03T06:20:24;3.10;53.70
21682;DHT22;11002;48.256;10.084;2023-04-03T06:22:53;3.20;54.50
21682;DHT22;11002;48.256;10.084;2023-04-03T06:25:20;3.10;53.80
21682;DHT22;11002;48.256;10.084;2023-04-03T06:27:49;3.20;53.80
21682;DHT22;11002;48.256;10.084;2023-04-03T06:30:16;3.20;53.80
21682;DHT22;11002;48.256;10.084;2023-04-03T06:32:44;3.30;53.90
21682;DHT22;11002;48.256;10.084;2023-04-03T06:35:11;3.30;53.80
21682;DHT22;11002;48.256;10.084;2023-04-03T06:37:39;3.30;53.90
21682;DHT22;11002;48.256;10.084;2023-04-03T06:40:09;3.40;54.00
21682;DHT22;11002;48.256;10.084;2023-04-03T06:42:39;3.40;53.80
21682;DHT22;11002;48.256;10.084;2023-04-03T06:45:12;3.30;53.80
21682;DHT22;11002;48.256;10.084;2023-04-03T06:47:39;3.50;54.00
21682;DHT22;11002;48.256;10.084;2023-04-03T06:50:08;3.10;53.70
21682;DHT22;11002;48.256;10.084;2023-04-03T06:52:37;3.20;53.80
21682;DHT22;11002;48.256;10.084;2023-04-03T06:55:06;3.40;54.70
21682;DHT22;11002;48.256;10.084;2023-04-03T06:57:34;3.50;54.10
21682;DHT22;11002;48.256;10.084;2023-04-03T07:00:02;3.50;54.00
21682;DHT22;11002;48.256;10.084;2023-04-03T07:02:31;3.40;52.90
21682;DHT22;11002;48.256;10.084;2023-04-03T07:04:59;3.30;53.90
21682;DHT22;11002;48.256;10.084;2023-04-03T07:07:26;3.30;53.90
21682;DHT22;11002;48.256;10.084;2023-04-03T07:09:53;3.30;53.30
21682;DHT22;11002;48.256;10.084;2023-04-03T07:12:21;3.50;54.00
21682;DHT22;11002;48.256;10.084;2023-04-03T07:14:48;3.40;54.00
21682;DHT22;11002;48.256;10.084;2023-04-03T07:17:16;3.20;53.80
21682;DHT22;11002;48.256;10.084;2023-04-03T07:19:45;3.40;54.00
21682;DHT22;11002;48.256;10.084;2023-04-03T07:22:12;3.50;54.00
21682;DHT22;11002;48.256;10.084;2023-04-03T07:24:39;3.50;54.00
21682;DHT22;11002;48.256;10.084;2023-04-03T07:27:07;3.50;54.00
21682;DHT22;11002;48.256;10.084;2023-04-03T07:29:35;3.60;54.10
21682;DHT22;11002;48.256;10.084;2023-04-03T07:32:02;3.60;52.90
21682;DHT22;11002;48.256;10.084;2023-04-03T07:34:30;3.50;54.00
21682;DHT22;11002;48.256;10.084;2023-04-03T07:36:59;3.70;54.50
21682;DHT22;11002;48.256;10.084;2023-04-03T07:39:27;3.80;54.30
21682;DHT22;11002;48.256;10.084;2023-04-03T07:41:55;3.90;54.30
21682;DHT22;11002;48.256;10.084;2023-04-03T07:44:22;4.00;53.00
21682;DHT22;11002;48.256;10.084;2023-04-03T07:46:49;4.00;53.00
21682;DHT22;11002;48.256;10.084;2023-04-03T07:49:17;4.00;51.30
21682;DHT22;11002;48.256;10.084;2023-04-03T07:51:45;4.30;53.80
21682;DHT22;11002;48.256;10.084;2023-04-03T07:54:14;4.30;52.90
21682;DHT22;11002;48.256;10.084;2023-04-03T07:56:41;4.00;52.40
21682;DHT22;11002;48.256;10.084;2023-04-03T07:59:09;4.00;52.10
21682;DHT22;11002;48.256;10.084;2023-04-03T08:01:37;4.20;52.80
21682;DHT22;11002;48.256;10.084;2023-04-03T08:04:04;4.10;52.50
21682;DHT22;11002;48.256;10.084;2023-04-03T08:06:32;4.20;52.10
21682;DHT22;11002;48.256;10.084;2023-04-03T08:09:02;4.20;51.20
21682;DHT22;11002;48.256;10.084;2023-04-03T08:11:33;4.30;51.80
21682;DHT22;11002;48.256;10.084;2023-04-03T08:14:02;4.50;52.70
21682;DHT22;11002;48.256;10.084;2023-04-03T08:16:30;4.40;51.20
21682;DHT22;11002;48.256;10.084;2023-04-03T08:18:57;4.30;51.10
21682;DHT22;11002;48.256;10.084;2023-04-03T08:21:25;4.40;50.90
21682;DHT22;11002;48.256;10.084;2023-04-03T08:23:52;4.40;51.70
21682;DHT22;11002;48.256;10.084;2023-04-03T08:26:21;4.50;51.30
21682;DHT22;11002;48.256;10.084;2023-04-03T08:28:50;4.50;50.10
21682;DHT22;11002;48.256;10.084;2023-04-03T08:31:19;4.50;50.50
21682;DHT22;11002;48.256;10.084;2023-04-03T08:33:46;4.50;50.00
21682;DHT22;11002;48.256;10.084;2023-04-03T08:36:18;4.60;50.70
21682;DHT22;11002;48.256;10.084;2023-04-03T08:38:46;4.70;50.60
21682;DHT22;11002;48.256;10.084;2023-04-03T08:41:16;4.90;50.10
21682;DHT22;11002;48.256;10.084;2023-04-03T08:44:07;5.00;49.10
21682;DHT22;11002;48.256;10.084;2023-04-03T08:49:31;5.10;46.90
21682;DHT22;11002;48.256;10.084;2023-04-03T08:52:01;5.00;47.40
21682;DHT22;11002;48.256;10.084;2023-04-03T08:54:32;5.10;47.40
21682;DHT22;11002;48.256;10.084;2023-04-03T08:57:02;5.20;45.20
21682;DHT22;11002;48.256;10.084;2023-04-03T08:59:35;5.10;47.70
21682;DHT22;11002;48.256;10.084;2023-04-03T09:02:17;5.30;45.70
21682;DHT22;11002;48.256;10.084;2023-04-03T09:04:48;5.30;45.80
21682;DHT22;11002;48.256;10.084;2023-04-03T09:07:22;5.20;47.40
21682;DHT22;11002;48.256;10.084;2023-04-03T09:09:53;5.40;45.10
21682;DHT22;11002;48.256;10.084;2023-04-03T09:12:27;5.40;45.20
21682;DHT22;11002;48.256;10.084;2023-04-03T09:15:04;5.30;45.10
21682;DHT22;11002;48.256;10.084;2023-04-03T09:17:41;5.40;47.30
21682;DHT22;11002;48.256;10.084;2023-04-03T09:20:23;5.50;43.30
21682;DHT22;11002;48.256;10.084;2023-04-03T09:22:52;5.50;45.20
21682;DHT22;11002;48.256;10.084;2023-04-03T09:25:22;5.50;44.70
21682;DHT22;11002;48.256;10.084;2023-04-03T09:27:50;5.50;43.70
21682;DHT22;11002;48.256;10.084;2023-04-03T09:30:21;5.40;44.30
21682;DHT22;11002;48.256;10.084;2023-04-03T09:32:50;5.50;45.80
21682;DHT22;11002;48.256;10.084;2023-04-03T09:35:21;5.70;43.40
21682;DHT22;11002;48.256;10.084;2023-04-03T09:37:50;5.80;42.60
21682;DHT22;11002;48.256;10.084;2023-04-03T09:40:30;5.60;41.00
21682;DHT22;11002;48.256;10.084;2023-04-03T09:43:01;5.60;43.30
21682;DHT22;11002;48.256;10.084;2023-04-03T09:45:32;5.60;41.40
21682;DHT22;11002;48.256;10.084;2023-04-03T09:48:08;5.70;42.70
21682;DHT22;11002;48.256;10.084;2023-04-03T09:50:36;5.90;42.20
21682;DHT22;11002;48.256;10.084;2023-04-03T09:53:12;6.00;41.40
21682;DHT22;11002;48.256;10.084;2023-04-03T09:55:52;6.30;42.30
21682;DHT22;11002;48.256;10.084;2023-04-03T09:58:25;6.20;37.40
21682;DHT22;11002;48.256;10.084;2023-04-03T10:00:59;6.00;40.00
21682;DHT22;11002;48.256;10.084;2023-04-03T10:03:29;6.10;40.70
21682;DHT22;11002;48.256;10.084;2023-04-03T10:05:57;6.10;38.20
21682;DHT22;11002;48.256;10.084;2023-04-03T10:08:27;6.00;40.20
21682;DHT22;11002;48.256;10.084;2023-04-03T10:11:11;6.00;40.90
21682;DHT22;11002;48.256;10.084;2023-04-03T10:13:53;6.00;38.30
21682;DHT22;11002;48.256;10.084;2023-04-03T10:16:25;5.90;41.60
21682;DHT22;11002;48.256;10.084;2023-04-03T10:19:02;6.00;41.40
21682;DHT22;11002;48.256;10.084;2023-04-03T10:21:37;6.20;41.20
21682;DHT22;11002;48.256;10.084;2023-04-03T10:24:12;6.40;39.20
21682;DHT22;11002;48.256;10.084;2023-04-03T10:26:51;6.30;39.60
21682;DHT22;11002;48.256;10.084;2023-04-03T10:29:30;6.50;38.90
21682;DHT22;11002;48.256;10.084;2023-04-03T10:32:15;6.70;40.30
21682;DHT22;11002;48.256;10.084;2023-04-03T10:34:47;6.80;37.90
21682;DHT22;11002;48.256;10.084;2023-04-03T10:37:24;6.60;39.10
21682;DHT22;11002;48.256;10.084;2023-04-03T10:39:56;6.50;37.70
21682;DHT22;11002;48.256;10.084;2023-04-03T10:42:28;6.20;38.10
21682;DHT22;11002;48.256;10.084;2023-04-03T10:45:10;6.20;38.20
21682;DHT22;11002;48.256;10.084;2023-04-03T10:47:55;6.20;38.70
21682;DHT22;11002;48.256;10.084;2023-04-03T10:50:39;6.30;38.80
21682;DHT22;11002;48.256;10.084;2023-04-03T10:53:14;6.50;40.20
21682;DHT22;11002;48.256;10.084;2023-04-03T10:55:48;6.50;38.70
21682;DHT22;11002;48.256;10.084;2023-04-03T10:58:27;6.30;38.00
21682;DHT22;11002;48.256;10.084;2023-04-03T11:01:01;6.20;37.90
21682;DHT22;11002;48.256;10.084;2023-04-03T11:03:35;6.10;39.10
21682;DHT22;11002;48.256;10.084;2023-04-03T11:06:07;5.80;37.40
21682;DHT22;11002;48.256;10.084;2023-04-03T11:08:39;5.80;40.90
21682;DHT22;11002;48.256;10.084;2023-04-03T11:11:14;5.50;40.20
21682;DHT22;11002;48.256;10.084;2023-04-03T11:13:52;5.40;40.00
21682;DHT22;11002;48.256;10.084;2023-04-03T11:16:24;5.10;40.20
21682;DHT22;11002;48.256;10.084;2023-04-03T11:18:57;5.00;41.50
21682;DHT22;11002;48.256;10.084;2023-04-03T11:21:29;4.90;41.40
21682;DHT22;11002;48.256;10.084;2023-04-03T11:24:03;5.10;41.90
21682;DHT22;11002;48.256;10.084;2023-04-03T11:26:38;4.90;41.20
21682;DHT22;11002;48.256;10.084;2023-04-03T11:29:10;4.80;42.60
21682;DHT22;11002;48.256;10.084;2023-04-03T11:31:49;4.90;41.70
21682;DHT22;11002;48.256;10.084;2023-04-03T11:34:31;5.00;40.30
21682;DHT22;11002;48.256;10.084;2023-04-03T11:37:04;5.10;41.10
21682;DHT22;11002;48.256;10.084;2023-04-03T11:39:34;5.30;40.40
21682;DHT22;11002;48.256;10.084;2023-04-03T11:42:20;5.20;41.40
21682;DHT22;11002;48.256;10.084;2023-04-03T11:44:50;5.50;41.00
21682;DHT22;11002;48.256;10.084;2023-04-03T11:50:40;5.70;37.00
21682;DHT22;11002;48.256;10.084;2023-04-03T11:53:36;5.70;37.00
21682;DHT22;11002;48.256;10.084;2023-04-03T11:56:31;5.50;36.80
21682;DHT22;11002;48.256;10.084;2023-04-03T11:59:24;5.60;36.90
21682;DHT22;11002;48.256;10.084;2023-04-03T12:01:52;5.50;36.50
21682;DHT22;11002;48.256;10.084;2023-04-03T12:04:21;5.60;38.30
21682;DHT22;11002;48.256;10.084;2023-04-03T12:09:58;6.10;37.40
21682;DHT22;11002;48.256;10.084;2023-04-03T12:12:39;6.00;39.20
21682;DHT22;11002;48.256;10.084;2023-04-03T12:15:26;5.90;37.10
21682;DHT22;11002;48.256;10.084;2023-04-03T12:18:39;6.00;38.70
21682;DHT22;11002;48.256;10.084;2023-04-03T12:21:08;6.10;38.60
21682;DHT22;11002;48.256;10.084;2023-04-03T12:23:36;6.00;37.20
21682;DHT22;11002;48.256;10.084;2023-04-03T12:26:21;5.90;37.10
21682;DHT22;11002;48.256;10.084;2023-04-03T12:28:51;5.90;37.10
21682;DHT22;11002;48.256;10.084;2023-04-03T12:31:20;5.80;37.10
21682;DHT22;11002;48.256;10.084;2023-04-03T12:34:01;5.80;37.40
21682;DHT22;11002;48.256;10.084;2023-04-03T12:36:39;5.70;37.90
21682;DHT22;11002;48.256;10.084;2023-04-03T12:39:45;5.60;35.80
21682;DHT22;11002;48.256;10.084;2023-04-03T12:42:32;5.80;37.10
21682;DHT22;11002;48.256;10.084;2023-04-03T12:45:13;5.60;36.90
21682;DHT22;11002;48.256;10.084;2023-04-03T12:47:44;5.70;37.00
21682;DHT22;11002;48.256;10.084;2023-04-03T12:50:21;5.70;36.50
21682;DHT22;11002;48.256;10.084;2023-04-03T12:52:56;5.60;36.90
21682;DHT22;11002;48.256;10.084;2023-04-03T12:55:25;5.50;36.80
21682;DHT22;11002;48.256;10.084;2023-04-03T12:57:54;5.40;37.10
21682;DHT22;11002;48.256;10.084;2023-04-03T13:00:30;5.50;38.10
21682;DHT22;11002;48.256;10.084;2023-04-03T13:02:59;5.50;36.80
21682;DHT22;11002;48.256;10.084;2023-04-03T13:05:27;5.60;38.30
21682;DHT22;11002;48.256;10.084;2023-04-03T13:07:59;5.60;41.10
21682;DHT22;11002;48.256;10.084;2023-04-03T13:10:29;5.70;39.40
21682;DHT22;11002;48.256;10.084;2023-04-03T13:13:07;5.60;40.00
21682;DHT22;11002;48.256;10.084;2023-04-03T13:15:41;5.30;38.60
21682;DHT22;11002;48.256;10.084;2023-04-03T13:18:25;5.10;38.50
21682;DHT22;11002;48.256;10.084;2023-04-03T13:20:55;5.20;38.30
21682;DHT22;11002;48.256;10.084;2023-04-03T13:23:24;5.10;38.60
21682;DHT22;11002;48.256;10.084;2023-04-03T13:25:52;5.20;37.30
21682;DHT22;11002;48.256;10.084;2023-04-03T13:28:23;5.30;40.00
21682;DHT22;11002;48.256;10.084;2023-04-03T13:30:57;5.50;37.60
21682;DHT22;11002;48.256;10.084;2023-04-03T13:33:28;5.70;38.10
21682;DHT22;11002;48.256;10.084;2023-04-03T13:36:00;5.90;39.00
21682;DHT22;11002;48.256;10.084;2023-04-03T13:38:30;6.00;37.20
21682;DHT22;11002;48.256;10.084;2023-04-03T13:41:01;6.20;37.40
21682;DHT22;11002;48.256;10.084;2023-04-03T13:43:33;6.20;37.40
21682;DHT22;11002;48.256;10.084;2023-04-03T13:46:05;6.20;37.40
21682;DHT22;11002;48.256;10.084;2023-04-03T13:48:39;6.30;37.50
21682;DHT22;11002;48.256;10.084;2023-04-03T13:51:18;6.40;37.60
21682;DHT22;11002;48.256;10.084;2023-04-03T13:53:48;6.50;37.60
21682;DHT22;11002;48.256;10.084;2023-04-03T13:56:19;6.50;37.60
21682;DHT22;11002;48.256;10.084;2023-04-03T13:59:00;6.70;37.40
21682;DHT22;11002;48.256;10.084;2023-04-03T14:01:42;6.90;38.00
21682;DHT22;11002;48.256;10.084;2023-04-03T14:04:14;7.10;36.40
21682;DHT22;11002;48.256;10.084;2023-04-03T14:06:42;7.10;34.40
21682;DHT22;11002;48.256;10.084;2023-04-03T14:09:10;7.00;35.00
21682;DHT22;11002;48.256;10.084;2023-04-03T14:11:38;7.10;32.80
21682;DHT22;11002;48.256;10.084;2023-04-03T14:14:13;7.10;34.80
21682;DHT22;11002;48.256;10.084;2023-04-03T14:16:43;7.10;34.90
21682;DHT22;11002;48.256;10.084;2023-04-03T14:19:19;7.00;34.10
21682;DHT22;11002;48.256;10.084;2023-04-03T14:21:47;7.00;34.90
21682;DHT22;11002;48.256;10.084;2023-04-03T14:24:16;6.90;31.60
21682;DHT22;11002;48.256;10.084;2023-04-03T14:26:43;6.80;34.50
21682;DHT22;11002;48.256;10.084;2023-04-03T14:29:13;7.00;34.10
21682;DHT22;11002;48.256;10.084;2023-04-03T14:31:41;7.00;31.50
21682;DHT22;11002;48.256;10.084;2023-04-03T14:34:10;6.90;31.80
21682;DHT22;11002;48.256;10.084;2023-04-03T14:36:38;6.50;33.00
21682;DHT22;11002;48.256;10.084;2023-04-03T14:39:07;6.60;32.90
21682;DHT22;11002;48.256;10.084;2023-04-03T14:41:35;6.50;32.80
21682;DHT22;11002;48.256;10.084;2023-04-03T14:44:03;6.50;33.40
21682;DHT22;11002;48.256;10.084;2023-04-03T14:46:38;6.30;32.30
21682;DHT22;11002;48.256;10.084;2023-04-03T14:49:12;6.40;33.10
21682;DHT22;11002;48.256;10.084;2023-04-03T14:51:41;6.50;34.40
21682;DHT22;11002;48.256;10.084;2023-04-03T14:54:13;6.70;32.30
21682;DHT22;11002;48.256;10.084;2023-04-03T14:56:41;6.60;31.20
21682;DHT22;11002;48.256;10.084;2023-04-03T14:59:11;6.80;31.90
21682;DHT22;11002;48.256;10.084;2023-04-03T15:01:40;6.70;32.50
21682;DHT22;11002;48.256;10.084;2023-04-03T15:04:11;6.70;31.30
21682;DHT22;11002;48.256;10.084;2023-04-03T15:06:39;6.60;31.20
21682;DHT22;11002;48.256;10.084;2023-04-03T15:09:15;6.70;33.60
21682;DHT22;11002;48.256;10.084;2023-04-03T15:11:45;6.80;32.00
21682;DHT22;11002;48.256;10.084;2023-04-03T15:14:13;7.10;30.80
21682;DHT22;11002;48.256;10.084;2023-04-03T15:16:42;7.10;29.60
21682;DHT22;11002;48.256;10.084;2023-04-03T15:19:10;7.30;31.60
21682;DHT22;11002;48.256;10.084;2023-04-03T15:21:40;7.20;29.40
21682;DHT22;11002;48.256;10.084;2023-04-03T15:24:09;7.00;29.20
21682;DHT22;11002;48.256;10.084;2023-04-03T15:26:37;7.00;29.70
21682;DHT22;11002;48.256;10.084;2023-04-03T15:29:05;7.00;30.10
21682;DHT22;11002;48.256;10.084;2023-04-03T15:31:32;6.80;28.60
21682;DHT22;11002;48.256;10.084;2023-04-03T15:34:02;6.70;28.90
21682;DHT22;11002;48.256;10.084;2023-04-03T15:36:30;6.40;29.60
21682;DHT22;11002;48.256;10.084;2023-04-03T15:38:57;6.40;30.70
21682;DHT22;11002;48.256;10.084;2023-04-03T15:41:25;6.30;30.50
21682;DHT22;11002;48.256;10.084;2023-04-03T15:43:52;6.50;30.40
21682;DHT22;11002;48.256;10.084;2023-04-03T15:46:20;6.50;29.40
21682;DHT22;11002;48.256;10.084;2023-04-03T15:48:49;6.40;28.70
21682;DHT22;11002;48.256;10.084;2023-04-03T15:51:18;6.30;31.00
21682;DHT22;11002;48.256;10.084;2023-04-03T15:53:46;6.40;31.00
21682;DHT22;11002;48.256;10.084;2023-04-03T15:56:13;6.30;30.40
21682;DHT22;11002;48.256;10.084;2023-04-03T15:58:41;6.40;31.10
21682;DHT22;11002;48.256;10.084;2023-04-03T16:01:09;6.40;28.50